sensor_id;sensor_type;location;lat;lon;timestamp;P1;durP1;ratioP1;P2;durP2;ratioP2
73421;SDS011;61637;47.760;-122.022;2024-02-26T00:00:01;3.3;;;0.6;;
73421;SDS011;61637;47.760;-122.022;2024-02-26T00:02:01;2.9;;;0.5;;
73421;SDS011;61637;47.760;-122.022;2024-02-26T00:04:01;1.9;;;0.5;;
73421;SDS011;61637;47.760;-122.022;2024-02-26T00:06:02;2.2;;;0.6;;
73421;SDS011;61637;47.760;-122.022;2024-02-26T00:08:01;2.2;;;0.6;;
73421;SDS011;61637;47.760;-122.022;2024-02-26T00:10:01;1.5;;;0.5;;
73421;SDS011;61637;47.760;-122.022;2024-02-26T00:12:01;2.9;;;0.6;;
73421;SDS011;61637;47.760;-122.022;2024-02-26T00:14:01;2.5;;;0.6;;
73421;SDS011;61637;47.760;-122.022;2024-02-26T00:16:02;2.7;;;0.6;;
73421;SDS011;61637;47.760;-122.022;2024-02-26T00:18:01;2.4;;;0.6;;
73421;SDS011;61637;47.760;-122.022;2024-02-26T00:20:02;2.0;;;0.5;;
73421;SDS011;61637;47.760;-122.022;2024-02-26T00:22:01;2.5;;;0.6;;
73421;SDS011;61637;47.760;-122.022;2024-02-26T00:24:01;2.5;;;0.6;;
73421;SDS011;61637;47.760;-122.022;2024-02-26T00:26:01;3.1;;;0.6;;
73421;SDS011;61637;47.760;-122.022;2024-02-26T00:28:02;1.7;;;0.5;;
73421;SDS011;61637;47.760;-122.022;2024-02-26T00:30:01;1.6;;;0.6;;
73421;SDS011;61637;47.760;-122.022;2024-02-26T00:32:01;3.4;;;0.7;;
73421;SDS011;61637;47.760;-122.022;2024-02-26T00:34:01;2.9;;;0.7;;
73421;SDS011;61637;47.760;-122.022;2024-02-26T00:36:01;2.0;;;0.5;;
73421;SDS011;61637;47.760;-122.022;2024-02-26T00:38:01;2.7;;;0.6;;
73421;SDS011;61637;47.760;-122.022;2024-02-26T00:40:01;2.5;;;0.7;;
73421;SDS011;61637;47.760;-122.022;2024-02-26T00:42:01;11.9;;;1.9;;
73421;SDS011;61637;47.760;-122.022;2024-02-26T00:44:01;16.3;;;2.7;;
73421;SDS011;61637;47.760;-122.022;2024-02-26T00:46:01;23.3;;;3.5;;
73421;SDS011;61637;47.760;-122.022;2024-02-26T00:48:01;22.1;;;3.4;;
73421;SDS011;61637;47.760;-122.022;2024-02-26T00:50:01;18.3;;;3.1;;
73421;SDS011;61637;47.760;-122.022;2024-02-26T00:52:01;21.1;;;3.1;;
73421;SDS011;61637;47.760;-122.022;2024-02-26T00:54:02;20.6;;;3.0;;
73421;SDS011;61637;47.760;-122.022;2024-02-26T00:56:01;21.3;;;3.2;;
73421;SDS011;61637;47.760;-122.022;2024-02-26T00:58:01;20.7;;;3.5;;
73421;SDS011;61637;47.760;-122.022;2024-02-26T01:00:01;19.3;;;3.2;;
73421;SDS011;61637;47.760;-122.022;2024-02-26T01:02:03;18.7;;;3.2;;
73421;SDS011;61637;47.760;-122.022;2024-02-26T01:04:01;18.5;;;3.3;;
73421;SDS011;61637;47.760;-122.022;2024-02-26T01:06:01;19.2;;;3.2;;
73421;SDS011;61637;47.760;-122.022;2024-02-26T01:08:01;19.3;;;3.0;;
73421;SDS011;61637;47.760;-122.022;2024-02-26T01:10:01;17.1;;;2.9;;
73421;SDS011;61637;47.760;-122.022;2024-02-26T01:12:01;24.6;;;3.2;;
73421;SDS011;61637;47.760;-122.022;2024-02-26T01:14:01;19.0;;;2.8;;
73421;SDS011;61637;47.760;-122.022;2024-02-26T01:16:01;20.1;;;3.3;;
73421;SDS011;61637;47.760;-122.022;2024-02-26T01:18:01;19.9;;;2.9;;
73421;SDS011;61637;47.760;-122.022;2024-02-26T01:20:01;22.9;;;3.2;;
73421;SDS011;61637;47.760;-122.022;2024-02-26T01:22:01;20.8;;;3.1;;
73421;SDS011;61637;47.760;-122.022;2024-02-26T01:24:01;24.4;;;3.4;;
73421;SDS011;61637;47.760;-122.022;2024-02-26T01:26:01;23.2;;;3.2;;
73421;SDS011;61637;47.760;-122.022;2024-02-26T01:28:01;22.0;;;3.1;;
73421;SDS011;61637;47.760;-122.022;2024-02-26T01:30:02;22.9;;;3.6;;
73421;SDS011;61637;47.760;-122.022;2024-02-26T01:32:02;24.6;;;3.5;;
73421;SDS011;61637;47.760;-122.022;2024-02-26T01:34:01;25.6;;;3.2;;
73421;SDS011;61637;47.760;-122.022;2024-02-26T01:36:02;24.8;;;3.3;;
73421;SDS011;61637;47.760;-122.022;2024-02-26T01:38:01;24.7;;;3.3;;
73421;SDS011;61637;47.760;-122.022;2024-02-26T01:40:02;24.4;;;3.7;;
73421;SDS011;61637;47.760;-122.022;2024-02-26T01:42:01;23.6;;;3.1;;
73421;SDS011;61637;47.760;-122.022;2024-02-26T01:44:01;24.7;;;3.5;;
73421;SDS011;61637;47.760;-122.022;2024-02-26T01:46:01;28.1;;;3.3;;
73421;SDS011;61637;47.760;-122.022;2024-02-26T01:48:01;28.9;;;3.6;;
73421;SDS011;61637;47.760;-122.022;2024-02-26T01:50:01;25.0;;;3.5;;
73421;SDS011;61637;47.760;-122.022;2024-02-26T01:52:03;22.0;;;3.6;;
73421;SDS011;61637;47.760;-122.022;2024-02-26T01:54:02;25.0;;;3.2;;
73421;SDS011;61637;47.760;-122.022;2024-02-26T01:56:02;27.3;;;3.9;;
73421;SDS011;61637;47.760;-122.022;2024-02-26T01:58:01;22.1;;;2.8;;
73421;SDS011;61637;47.760;-122.022;2024-02-26T02:00:01;20.9;;;2.6;;
73421;SDS011;61637;47.760;-122.022;2024-02-26T02:02:03;27.3;;;3.4;;
73421;SDS011;61637;47.760;-122.022;2024-02-26T02:04:02;22.4;;;3.1;;
73421;SDS011;61637;47.760;-122.022;2024-02-26T02:06:02;23.3;;;3.1;;
73421;SDS011;61637;47.760;-122.022;2024-02-26T02:08:02;39.9;;;4.0;;
73421;SDS011;61637;47.760;-122.022;2024-02-26T02:10:01;17.9;;;3.2;;
73421;SDS011;61637;47.760;-122.022;2024-02-26T02:12:01;25.5;;;3.5;;
73421;SDS011;61637;47.760;-122.022;2024-02-26T02:14:01;18.7;;;3.5;;
73421;SDS011;61637;47.760;-122.022;2024-02-26T02:16:01;27.8;;;4.6;;
73421;SDS011;61637;47.760;-122.022;2024-02-26T02:18:01;27.0;;;3.9;;
73421;SDS011;61637;47.760;-122.022;2024-02-26T02:20:01;23.6;;;4.0;;
73421;SDS011;61637;47.760;-122.022;2024-02-26T02:22:01;24.1;;;3.7;;
73421;SDS011;61637;47.760;-122.022;2024-02-26T02:24:01;25.1;;;3.8;;
73421;SDS011;61637;47.760;-122.022;2024-02-26T02:26:01;21.4;;;3.0;;
73421;SDS011;61637;47.760;-122.022;2024-02-26T02:28:02;29.0;;;3.5;;
73421;SDS011;61637;47.760;-122.022;2024-02-26T02:30:01;24.8;;;3.2;;
73421;SDS011;61637;47.760;-122.022;2024-02-26T02:32:02;17.3;;;2.9;;
73421;SDS011;61637;47.760;-122.022;2024-02-26T02:34:01;23.3;;;3.1;;
73421;SDS011;61637;47.760;-122.022;2024-02-26T02:36:01;22.0;;;3.1;;
73421;SDS011;61637;47.760;-122.022;2024-02-26T02:38:01;18.1;;;2.9;;
73421;SDS011;61637;47.760;-122.022;2024-02-26T02:40:01;22.3;;;3.0;;
73421;SDS011;61637;47.760;-122.022;2024-02-26T02:42:01;23.6;;;3.4;;
73421;SDS011;61637;47.760;-122.022;2024-02-26T02:44:01;25.6;;;3.7;;
73421;SDS011;61637;47.760;-122.022;2024-02-26T02:46:01;25.2;;;3.4;;
73421;SDS011;61637;47.760;-122.022;2024-02-26T02:48:01;24.0;;;3.3;;
73421;SDS011;61637;47.760;-122.022;2024-02-26T02:50:01;23.3;;;3.4;;
73421;SDS011;61637;47.760;-122.022;2024-02-26T02:52:01;18.8;;;2.8;;
73421;SDS011;61637;47.760;-122.022;2024-02-26T02:54:01;25.8;;;3.2;;
73421;SDS011;61637;47.760;-122.022;2024-02-26T02:56:02;22.6;;;3.1;;
73421;SDS011;61637;47.760;-122.022;2024-02-26T02:58:01;19.6;;;2.9;;
73421;SDS011;61637;47.760;-122.022;2024-02-26T03:00:01;23.3;;;2.9;;
73421;SDS011;61637;47.760;-122.022;2024-02-26T03:02:02;19.9;;;3.1;;
73421;SDS011;61637;47.760;-122.022;2024-02-26T03:04:01;19.9;;;3.1;;
73421;SDS011;61637;47.760;-122.022;2024-02-26T03:06:01;20.4;;;2.6;;
73421;SDS011;61637;47.760;-122.022;2024-02-26T03:08:01;25.4;;;3.0;;
73421;SDS011;61637;47.760;-122.022;2024-02-26T03:10:02;22.3;;;3.1;;
73421;SDS011;61637;47.760;-122.022;2024-02-26T03:12:01;28.4;;;3.3;;
73421;SDS011;61637;47.760;-122.022;2024-02-26T03:14:01;22.1;;;3.8;;
73421;SDS011;61637;47.760;-122.022;2024-02-26T03:16:04;27.1;;;6.2;;
73421;SDS011;61637;47.760;-122.022;2024-02-26T03:18:01;27.0;;;9.5;;
73421;SDS011;61637;47.760;-122.022;2024-02-26T03:20:01;30.1;;;9.3;;
73421;SDS011;61637;47.760;-122.022;2024-02-26T03:22:01;23.7;;;10.2;;
73421;SDS011;61637;47.760;-122.022;2024-02-26T03:24:01;27.3;;;12.1;;
73421;SDS011;61637;47.760;-122.022;2024-02-26T03:26:01;35.1;;;12.1;;
73421;SDS011;61637;47.760;-122.022;2024-02-26T03:28:01;28.4;;;11.5;;
73421;SDS011;61637;47.760;-122.022;2024-02-26T03:30:02;23.9;;;11.1;;
73421;SDS011;61637;47.760;-122.022;2024-02-26T03:32:01;30.6;;;7.6;;
73421;SDS011;61637;47.760;-122.022;2024-02-26T03:34:01;23.6;;;9.0;;
73421;SDS011;61637;47.760;-122.022;2024-02-26T03:36:01;24.0;;;7.0;;
73421;SDS011;61637;47.760;-122.022;2024-02-26T03:38:01;20.0;;;4.6;;
73421;SDS011;61637;47.760;-122.022;2024-02-26T03:40:01;25.7;;;3.6;;
73421;SDS011;61637;47.760;-122.022;2024-02-26T03:42:01;25.4;;;4.0;;
73421;SDS011;61637;47.760;-122.022;2024-02-26T03:44:02;18.0;;;3.8;;
73421;SDS011;61637;47.760;-122.022;2024-02-26T03:46:01;21.3;;;3.5;;
73421;SDS011;61637;47.760;-122.022;2024-02-26T03:48:01;19.6;;;3.8;;
73421;SDS011;61637;47.760;-122.022;2024-02-26T03:50:01;20.6;;;3.9;;
73421;SDS011;61637;47.760;-122.022;2024-02-26T03:52:01;23.1;;;3.3;;
73421;SDS011;61637;47.760;-122.022;2024-02-26T03:54:02;15.0;;;2.7;;
73421;SDS011;61637;47.760;-122.022;2024-02-26T03:56:03;18.4;;;2.6;;
73421;SDS011;61637;47.760;-122.022;2024-02-26T03:58:01;14.9;;;2.4;;
73421;SDS011;61637;47.760;-122.022;2024-02-26T04:00:01;20.0;;;2.4;;
73421;SDS011;61637;47.760;-122.022;2024-02-26T04:02:01;23.1;;;2.8;;
73421;SDS011;61637;47.760;-122.022;2024-02-26T04:04:01;20.7;;;2.7;;
73421;SDS011;61637;47.760;-122.022;2024-02-26T04:06:02;18.2;;;2.5;;
73421;SDS011;61637;47.760;-122.022;2024-02-26T04:08:01;19.9;;;2.5;;
73421;SDS011;61637;47.760;-122.022;2024-02-26T04:10:01;20.2;;;2.7;;
73421;SDS011;61637;47.760;-122.022;2024-02-26T04:12:01;22.1;;;2.9;;
73421;SDS011;61637;47.760;-122.022;2024-02-26T04:14:01;16.4;;;2.7;;
73421;SDS011;61637;47.760;-122.022;2024-02-26T04:16:01;15.1;;;2.8;;
73421;SDS011;61637;47.760;-122.022;2024-02-26T04:18:01;16.2;;;4.1;;
73421;SDS011;61637;47.760;-122.022;2024-02-26T04:20:02;18.1;;;3.4;;
73421;SDS011;61637;47.760;-122.022;2024-02-26T04:22:01;15.6;;;2.9;;
73421;SDS011;61637;47.760;-122.022;2024-02-26T04:24:01;21.1;;;3.9;;
73421;SDS011;61637;47.760;-122.022;2024-02-26T04:26:01;14.3;;;3.1;;
73421;SDS011;61637;47.760;-122.022;2024-02-26T04:28:01;19.2;;;2.9;;
73421;SDS011;61637;47.760;-122.022;2024-02-26T04:30:01;22.1;;;4.5;;
73421;SDS011;61637;47.760;-122.022;2024-02-26T04:32:01;19.8;;;4.5;;
73421;SDS011;61637;47.760;-122.022;2024-02-26T04:34:01;25.6;;;7.4;;
73421;SDS011;61637;47.760;-122.022;2024-02-26T04:36:01;15.5;;;5.5;;
73421;SDS011;61637;47.760;-122.022;2024-02-26T04:38:01;19.8;;;3.8;;
73421;SDS011;61637;47.760;-122.022;2024-02-26T04:40:01;16.4;;;4.4;;
73421;SDS011;61637;47.760;-122.022;2024-02-26T04:42:02;17.1;;;5.4;;
73421;SDS011;61637;47.760;-122.022;2024-02-26T04:44:01;21.8;;;6.0;;
73421;SDS011;61637;47.760;-122.022;2024-02-26T04:46:01;20.0;;;5.9;;
73421;SDS011;61637;47.760;-122.022;2024-02-26T04:48:02;17.2;;;4.2;;
73421;SDS011;61637;47.760;-122.022;2024-02-26T04:50:01;17.6;;;5.8;;
73421;SDS011;61637;47.760;-122.022;2024-02-26T04:52:01;19.2;;;6.8;;
73421;SDS011;61637;47.760;-122.022;2024-02-26T04:54:02;24.3;;;7.2;;
73421;SDS011;61637;47.760;-122.022;2024-02-26T04:56:01;20.6;;;7.6;;
73421;SDS011;61637;47.760;-122.022;2024-02-26T04:58:01;18.0;;;8.6;;
73421;SDS011;61637;47.760;-122.022;2024-02-26T05:00:01;24.0;;;12.4;;
73421;SDS011;61637;47.760;-122.022;2024-02-26T05:02:01;26.0;;;13.0;;
73421;SDS011;61637;47.760;-122.022;2024-02-26T05:04:01;25.8;;;14.1;;
73421;SDS011;61637;47.760;-122.022;2024-02-26T05:06:01;24.5;;;13.7;;
73421;SDS011;61637;47.760;-122.022;2024-02-26T05:08:01;23.6;;;14.3;;
73421;SDS011;61637;47.760;-122.022;2024-02-26T05:10:01;19.9;;;11.7;;
73421;SDS011;61637;47.760;-122.022;2024-02-26T05:12:01;26.4;;;11.6;;
73421;SDS011;61637;47.760;-122.022;2024-02-26T05:14:01;18.7;;;9.5;;
73421;SDS011;61637;47.760;-122.022;2024-02-26T05:16:01;23.3;;;11.1;;
73421;SDS011;61637;47.760;-122.022;2024-02-26T05:18:01;25.6;;;12.5;;
73421;SDS011;61637;47.760;-122.022;2024-02-26T05:20:01;22.3;;;12.6;;
73421;SDS011;61637;47.760;-122.022;2024-02-26T05:22:01;26.3;;;12.7;;
73421;SDS011;61637;47.760;-122.022;2024-02-26T05:24:01;20.5;;;13.6;;
73421;SDS011;61637;47.760;-122.022;2024-02-26T05:26:01;21.1;;;12.3;;
73421;SDS011;61637;47.760;-122.022;2024-02-26T05:28:01;26.6;;;13.3;;
73421;SDS011;61637;47.760;-122.022;2024-02-26T05:30:02;25.0;;;13.1;;
73421;SDS011;61637;47.760;-122.022;2024-02-26T05:32:01;18.0;;;12.7;;
73421;SDS011;61637;47.760;-122.022;2024-02-26T05:34:01;20.9;;;12.8;;
73421;SDS011;61637;47.760;-122.022;2024-02-26T05:36:01;21.3;;;13.6;;
73421;SDS011;61637;47.760;-122.022;2024-02-26T05:38:01;22.8;;;14.0;;
73421;SDS011;61637;47.760;-122.022;2024-02-26T05:40:01;19.9;;;14.1;;
73421;SDS011;61637;47.760;-122.022;2024-02-26T05:42:01;20.0;;;15.5;;
73421;SDS011;61637;47.760;-122.022;2024-02-26T05:44:01;24.4;;;15.2;;
73421;SDS011;61637;47.760;-122.022;2024-02-26T05:46:01;19.0;;;14.9;;
73421;SDS011;61637;47.760;-122.022;2024-02-26T05:48:01;23.6;;;15.0;;
73421;SDS011;61637;47.760;-122.022;2024-02-26T05:50:01;23.2;;;15.5;;
73421;SDS011;61637;47.760;-122.022;2024-02-26T05:52:01;20.7;;;15.2;;
73421;SDS011;61637;47.760;-122.022;2024-02-26T05:54:02;19.6;;;15.5;;
73421;SDS011;61637;47.760;-122.022;2024-02-26T05:56:01;23.2;;;15.8;;
73421;SDS011;61637;47.760;-122.022;2024-02-26T05:58:01;20.0;;;14.6;;
73421;SDS011;61637;47.760;-122.022;2024-02-26T06:00:01;21.7;;;14.4;;
73421;SDS011;61637;47.760;-122.022;2024-02-26T06:02:01;20.4;;;14.6;;
73421;SDS011;61637;47.760;-122.022;2024-02-26T06:04:01;16.8;;;14.2;;
73421;SDS011;61637;47.760;-122.022;2024-02-26T06:06:01;18.2;;;13.7;;
73421;SDS011;61637;47.760;-122.022;2024-02-26T06:08:01;20.3;;;14.0;;
73421;SDS011;61637;47.760;-122.022;2024-02-26T06:10:02;20.7;;;14.4;;
73421;SDS011;61637;47.760;-122.022;2024-02-26T06:12:01;17.8;;;14.2;;
73421;SDS011;61637;47.760;-122.022;2024-02-26T06:14:01;20.0;;;14.4;;
73421;SDS011;61637;47.760;-122.022;2024-02-26T06:16:02;16.2;;;14.5;;
73421;SDS011;61637;47.760;-122.022;2024-02-26T06:18:01;19.0;;;14.5;;
73421;SDS011;61637;47.760;-122.022;2024-02-26T06:20:01;16.8;;;13.8;;
73421;SDS011;61637;47.760;-122.022;2024-02-26T06:22:01;17.9;;;14.0;;
73421;SDS011;61637;47.760;-122.022;2024-02-26T06:24:01;17.5;;;14.5;;
73421;SDS011;61637;47.760;-122.022;2024-02-26T06:26:01;17.6;;;14.5;;
73421;SDS011;61637;47.760;-122.022;2024-02-26T06:28:01;18.9;;;14.4;;
73421;SDS011;61637;47.760;-122.022;2024-02-26T06:30:01;19.4;;;14.7;;
73421;SDS011;61637;47.760;-122.022;2024-02-26T06:32:01;16.7;;;14.1;;
73421;SDS011;61637;47.760;-122.022;2024-02-26T06:34:01;15.3;;;13.7;;
73421;SDS011;61637;47.760;-122.022;2024-02-26T06:36:01;18.3;;;14.2;;
73421;SDS011;61637;47.760;-122.022;2024-02-26T06:38:01;16.4;;;14.0;;
73421;SDS011;61637;47.760;-122.022;2024-02-26T06:40:02;18.9;;;14.2;;
73421;SDS011;61637;47.760;-122.022;2024-02-26T06:42:01;16.6;;;13.6;;
73421;SDS011;61637;47.760;-122.022;2024-02-26T06:44:01;21.9;;;14.7;;
73421;SDS011;61637;47.760;-122.022;2024-02-26T06:46:01;19.2;;;14.6;;
73421;SDS011;61637;47.760;-122.022;2024-02-26T06:48:01;16.5;;;14.1;;
73421;SDS011;61637;47.760;-122.022;2024-02-26T06:50:01;16.6;;;14.1;;
73421;SDS011;61637;47.760;-122.022;2024-02-26T06:52:01;19.8;;;14.3;;
73421;SDS011;61637;47.760;-122.022;2024-02-26T06:54:01;16.1;;;14.4;;
73421;SDS011;61637;47.760;-122.022;2024-02-26T06:56:01;18.0;;;14.5;;
73421;SDS011;61637;47.760;-122.022;2024-02-26T06:58:01;16.1;;;14.5;;
73421;SDS011;61637;47.760;-122.022;2024-02-26T07:00:01;18.1;;;14.3;;
73421;SDS011;61637;47.760;-122.022;2024-02-26T07:02:01;16.5;;;13.9;;
73421;SDS011;61637;47.760;-122.022;2024-02-26T07:04:01;17.0;;;15.2;;
73421;SDS011;61637;47.760;-122.022;2024-02-26T07:06:02;20.4;;;14.6;;
73421;SDS011;61637;47.760;-122.022;2024-02-26T07:08:01;18.2;;;14.6;;
73421;SDS011;61637;47.760;-122.022;2024-02-26T07:10:01;15.8;;;13.8;;
73421;SDS011;61637;47.760;-122.022;2024-02-26T07:12:01;15.4;;;13.8;;
73421;SDS011;61637;47.760;-122.022;2024-02-26T07:14:01;15.6;;;14.1;;
73421;SDS011;61637;47.760;-122.022;2024-02-26T07:16:04;16.1;;;14.3;;
73421;SDS011;61637;47.760;-122.022;2024-02-26T07:18:01;20.1;;;14.7;;
73421;SDS011;61637;47.760;-122.022;2024-02-26T07:20:02;15.7;;;14.1;;
73421;SDS011;61637;47.760;-122.022;2024-02-26T07:22:01;15.7;;;14.1;;
73421;SDS011;61637;47.760;-122.022;2024-02-26T07:24:01;15.7;;;14.0;;
73421;SDS011;61637;47.760;-122.022;2024-02-26T07:26:01;16.1;;;14.2;;
73421;SDS011;61637;47.760;-122.022;2024-02-26T07:28:02;17.5;;;14.7;;
73421;SDS011;61637;47.760;-122.022;2024-02-26T07:30:01;15.7;;;14.0;;
73421;SDS011;61637;47.760;-122.022;2024-02-26T07:32:01;15.8;;;14.2;;
73421;SDS011;61637;47.760;-122.022;2024-02-26T07:34:01;16.9;;;14.0;;
73421;SDS011;61637;47.760;-122.022;2024-02-26T07:36:01;16.7;;;15.0;;
73421;SDS011;61637;47.760;-122.022;2024-02-26T07:38:01;15.7;;;14.1;;
73421;SDS011;61637;47.760;-122.022;2024-02-26T07:40:01;15.1;;;13.7;;
73421;SDS011;61637;47.760;-122.022;2024-02-26T07:42:01;17.5;;;14.0;;
73421;SDS011;61637;47.760;-122.022;2024-02-26T07:44:01;15.5;;;14.0;;
73421;SDS011;61637;47.760;-122.022;2024-02-26T07:46:01;15.6;;;14.1;;
73421;SDS011;61637;47.760;-122.022;2024-02-26T07:48:01;15.4;;;14.0;;
73421;SDS011;61637;47.760;-122.022;2024-02-26T07:50:01;15.3;;;13.7;;
73421;SDS011;61637;47.760;-122.022;2024-02-26T07:52:01;19.2;;;14.7;;
73421;SDS011;61637;47.760;-122.022;2024-02-26T07:54:02;15.7;;;14.3;;
73421;SDS011;61637;47.760;-122.022;2024-02-26T07:56:01;16.2;;;14.7;;
73421;SDS011;61637;47.760;-122.022;2024-02-26T07:58:01;15.9;;;14.3;;
73421;SDS011;61637;47.760;-122.022;2024-02-26T08:00:02;16.0;;;14.5;;
73421;SDS011;61637;47.760;-122.022;2024-02-26T08:02:01;16.1;;;14.4;;
73421;SDS011;61637;47.760;-122.022;2024-02-26T08:04:01;16.7;;;15.1;;
73421;SDS011;61637;47.760;-122.022;2024-02-26T08:06:01;15.6;;;14.1;;
73421;SDS011;61637;47.760;-122.022;2024-02-26T08:08:01;14.9;;;13.6;;
73421;SDS011;61637;47.760;-122.022;2024-02-26T08:10:01;15.6;;;14.1;;
73421;SDS011;61637;47.760;-122.022;2024-02-26T08:12:01;32.7;;;15.3;;
73421;SDS011;61637;47.760;-122.022;2024-02-26T08:14:01;88.3;;;17.9;;
73421;SDS011;61637;47.760;-122.022;2024-02-26T08:16:01;17.3;;;15.4;;
73421;SDS011;61637;47.760;-122.022;2024-02-26T08:18:01;43.2;;;16.6;;
73421;SDS011;61637;47.760;-122.022;2024-02-26T08:20:01;39.5;;;15.8;;
73421;SDS011;61637;47.760;-122.022;2024-02-26T08:22:01;17.2;;;15.5;;
73421;SDS011;61637;47.760;-122.022;2024-02-26T08:24:01;21.3;;;15.7;;
73421;SDS011;61637;47.760;-122.022;2024-02-26T08:26:01;64.9;;;16.8;;
73421;SDS011;61637;47.760;-122.022;2024-02-26T08:28:01;19.6;;;15.7;;
73421;SDS011;61637;47.760;-122.022;2024-02-26T08:30:01;16.5;;;15.0;;
73421;SDS011;61637;47.760;-122.022;2024-02-26T08:32:01;19.3;;;15.1;;
73421;SDS011;61637;47.760;-122.022;2024-02-26T08:34:01;16.7;;;15.2;;
73421;SDS011;61637;47.760;-122.022;2024-02-26T08:36:04;15.2;;;13.8;;
73421;SDS011;61637;47.760;-122.022;2024-02-26T08:38:01;16.5;;;14.9;;
73421;SDS011;61637;47.760;-122.022;2024-02-26T08:40:01;17.1;;;15.3;;
73421;SDS011;61637;47.760;-122.022;2024-02-26T08:42:01;24.3;;;15.0;;
73421;SDS011;61637;47.760;-122.022;2024-02-26T08:44:01;17.1;;;15.4;;
73421;SDS011;61637;47.760;-122.022;2024-02-26T08:46:01;16.5;;;15.0;;
73421;SDS011;61637;47.760;-122.022;2024-02-26T08:48:01;15.9;;;14.4;;
73421;SDS011;61637;47.760;-122.022;2024-02-26T08:50:01;16.7;;;14.9;;
73421;SDS011;61637;47.760;-122.022;2024-02-26T08:52:01;15.5;;;14.0;;
73421;SDS011;61637;47.760;-122.022;2024-02-26T08:54:01;15.2;;;13.8;;
73421;SDS011;61637;47.760;-122.022;2024-02-26T08:56:02;27.3;;;14.1;;
73421;SDS011;61637;47.760;-122.022;2024-02-26T08:58:01;50.9;;;15.3;;
73421;SDS011;61637;47.760;-122.022;2024-02-26T09:00:02;21.9;;;14.3;;
73421;SDS011;61637;47.760;-122.022;2024-02-26T09:02:01;29.9;;;15.5;;
73421;SDS011;61637;47.760;-122.022;2024-02-26T09:04:01;20.0;;;14.7;;
73421;SDS011;61637;47.760;-122.022;2024-02-26T09:06:01;15.3;;;13.5;;
73421;SDS011;61637;47.760;-122.022;2024-02-26T09:08:01;20.1;;;14.1;;
73421;SDS011;61637;47.760;-122.022;2024-02-26T09:10:01;23.0;;;14.7;;
73421;SDS011;61637;47.760;-122.022;2024-02-26T09:12:01;36.2;;;14.0;;
73421;SDS011;61637;47.760;-122.022;2024-02-26T09:14:01;58.3;;;15.3;;
73421;SDS011;61637;47.760;-122.022;2024-02-26T09:16:01;20.5;;;13.4;;
73421;SDS011;61637;47.760;-122.022;2024-02-26T09:18:01;66.9;;;15.2;;
73421;SDS011;61637;47.760;-122.022;2024-02-26T09:20:02;22.2;;;14.1;;
73421;SDS011;61637;47.760;-122.022;2024-02-26T09:22:01;26.8;;;14.2;;
73421;SDS011;61637;47.760;-122.022;2024-02-26T09:24:01;15.4;;;13.9;;
73421;SDS011;61637;47.760;-122.022;2024-02-26T09:26:01;15.8;;;14.2;;
73421;SDS011;61637;47.760;-122.022;2024-02-26T09:28:01;18.1;;;14.9;;
73421;SDS011;61637;47.760;-122.022;2024-02-26T09:30:01;22.0;;;14.1;;
73421;SDS011;61637;47.760;-122.022;2024-02-26T09:32:02;16.2;;;14.6;;
73421;SDS011;61637;47.760;-122.022;2024-02-26T09:34:01;16.5;;;14.8;;
73421;SDS011;61637;47.760;-122.022;2024-02-26T09:36:02;16.0;;;14.6;;
73421;SDS011;61637;47.760;-122.022;2024-02-26T09:38:01;17.5;;;14.6;;
73421;SDS011;61637;47.760;-122.022;2024-02-26T09:40:01;16.7;;;14.3;;
73421;SDS011;61637;47.760;-122.022;2024-02-26T09:42:04;15.6;;;14.1;;
73421;SDS011;61637;47.760;-122.022;2024-02-26T09:44:02;15.4;;;13.9;;
73421;SDS011;61637;47.760;-122.022;2024-02-26T09:46:01;15.1;;;13.5;;
73421;SDS011;61637;47.760;-122.022;2024-02-26T09:48:06;15.8;;;13.4;;
73421;SDS011;61637;47.760;-122.022;2024-02-26T09:50:02;15.4;;;13.9;;
73421;SDS011;61637;47.760;-122.022;2024-02-26T09:52:01;15.7;;;14.0;;
73421;SDS011;61637;47.760;-122.022;2024-02-26T09:54:01;16.7;;;14.9;;
73421;SDS011;61637;47.760;-122.022;2024-02-26T09:56:01;15.9;;;14.1;;
73421;SDS011;61637;47.760;-122.022;2024-02-26T09:58:01;15.6;;;13.5;;
73421;SDS011;61637;47.760;-122.022;2024-02-26T10:00:02;15.4;;;13.5;;
73421;SDS011;61637;47.760;-122.022;2024-02-26T10:02:01;18.0;;;14.3;;
73421;SDS011;61637;47.760;-122.022;2024-02-26T10:04:01;17.4;;;14.5;;
73421;SDS011;61637;47.760;-122.022;2024-02-26T10:06:01;15.5;;;13.8;;
73421;SDS011;61637;47.760;-122.022;2024-02-26T10:08:01;21.0;;;15.2;;
73421;SDS011;61637;47.760;-122.022;2024-02-26T10:10:02;22.5;;;15.3;;
73421;SDS011;61637;47.760;-122.022;2024-02-26T10:12:01;20.8;;;16.0;;
73421;SDS011;61637;47.760;-122.022;2024-02-26T10:14:01;17.0;;;15.4;;
73421;SDS011;61637;47.760;-122.022;2024-02-26T10:16:01;17.1;;;14.9;;
73421;SDS011;61637;47.760;-122.022;2024-02-26T10:18:03;17.2;;;15.5;;
73421;SDS011;61637;47.760;-122.022;2024-02-26T10:22:02;17.2;;;14.5;;
73421;SDS011;61637;47.760;-122.022;2024-02-26T10:24:01;18.7;;;14.5;;
73421;SDS011;61637;47.760;-122.022;2024-02-26T10:26:01;16.2;;;14.5;;
73421;SDS011;61637;47.760;-122.022;2024-02-26T10:28:02;15.9;;;14.3;;
73421;SDS011;61637;47.760;-122.022;2024-02-26T10:30:03;18.6;;;14.0;;
73421;SDS011;61637;47.760;-122.022;2024-02-26T10:32:01;17.1;;;14.7;;
73421;SDS011;61637;47.760;-122.022;2024-02-26T10:34:01;17.7;;;14.1;;
73421;SDS011;61637;47.760;-122.022;2024-02-26T10:36:01;17.1;;;14.3;;
73421;SDS011;61637;47.760;-122.022;2024-02-26T10:38:01;16.5;;;14.6;;
73421;SDS011;61637;47.760;-122.022;2024-02-26T10:40:02;19.8;;;14.7;;
73421;SDS011;61637;47.760;-122.022;2024-02-26T10:42:01;15.8;;;13.6;;
73421;SDS011;61637;47.760;-122.022;2024-02-26T10:44:01;16.1;;;14.1;;
73421;SDS011;61637;47.760;-122.022;2024-02-26T10:46:01;16.6;;;13.5;;
73421;SDS011;61637;47.760;-122.022;2024-02-26T10:48:01;14.8;;;13.2;;
73421;SDS011;61637;47.760;-122.022;2024-02-26T10:50:03;16.4;;;14.2;;
73421;SDS011;61637;47.760;-122.022;2024-02-26T10:52:02;18.5;;;14.0;;
73421;SDS011;61637;47.760;-122.022;2024-02-26T10:54:04;17.2;;;14.6;;
73421;SDS011;61637;47.760;-122.022;2024-02-26T10:56:03;19.9;;;14.2;;
73421;SDS011;61637;47.760;-122.022;2024-02-26T10:58:01;15.3;;;13.7;;
73421;SDS011;61637;47.760;-122.022;2024-02-26T11:00:03;16.3;;;14.6;;
73421;SDS011;61637;47.760;-122.022;2024-02-26T11:02:01;15.8;;;14.3;;
73421;SDS011;61637;47.760;-122.022;2024-02-26T11:04:02;15.8;;;13.0;;
73421;SDS011;61637;47.760;-122.022;2024-02-26T11:06:01;15.9;;;13.7;;
73421;SDS011;61637;47.760;-122.022;2024-02-26T11:08:03;15.4;;;13.9;;
73421;SDS011;61637;47.760;-122.022;2024-02-26T11:10:03;17.4;;;14.1;;
73421;SDS011;61637;47.760;-122.022;2024-02-26T11:12:02;15.6;;;13.9;;
73421;SDS011;61637;47.760;-122.022;2024-02-26T11:14:02;15.6;;;13.9;;
73421;SDS011;61637;47.760;-122.022;2024-02-26T11:16:02;15.4;;;13.7;;
73421;SDS011;61637;47.760;-122.022;2024-02-26T11:18:02;15.6;;;14.0;;
73421;SDS011;61637;47.760;-122.022;2024-02-26T11:20:01;17.3;;;13.9;;
73421;SDS011;61637;47.760;-122.022;2024-02-26T11:22:01;17.9;;;13.8;;
73421;SDS011;61637;47.760;-122.022;2024-02-26T11:24:02;21.8;;;14.9;;
73421;SDS011;61637;47.760;-122.022;2024-02-26T11:26:03;17.8;;;14.1;;
73421;SDS011;61637;47.760;-122.022;2024-02-26T11:28:05;16.0;;;14.3;;
73421;SDS011;61637;47.760;-122.022;2024-02-26T11:30:02;16.1;;;14.1;;
73421;SDS011;61637;47.760;-122.022;2024-02-26T11:32:01;16.0;;;14.3;;
73421;SDS011;61637;47.760;-122.022;2024-02-26T11:34:01;16.0;;;14.3;;
73421;SDS011;61637;47.760;-122.022;2024-02-26T11:36:01;18.0;;;14.4;;
73421;SDS011;61637;47.760;-122.022;2024-02-26T11:38:01;16.6;;;15.0;;